Disclaimer

Please do not use the information listed here in-flight or in-navigation, as they are not provided to us by the airports but are provided by volunteers, so they might be outdated.

Search


Regions


Airport information page

Radio informations:
Tower (TWR) - 118.1 MHz
Ground (GND) - 121.7 MHz
Automatic Terminal Information Service (ATIS) - 128.0 MHz
Approach (APP) - 119.7 MHz

Airport informations:
Latitude: 35° 41' 21.00" N
Longitude: 051° 18' 48.30" E
Elevation: 3962 feet - 1208 meters
Operating hours: 24 hour operations
Operating agency: Military-civil joint use airport
Timezone: UTC+3:30
Fuel: N/A

Runway information:
09/27 - 1556 x 131 feet< - >474 x 40 meters
11R/29L - 13248 x 197 feet< - >4038 x 60 meters
11L/29R - 13098 x 148 feet< - >3992 x 45 meters

Recent METARs:
OIII 122130Z 05004KT 6000 -RA SCT030 OVC080 10/07 Q1022 A3018
OIII 122200Z 07004KT 7000 SCT030 OVC080 10/07 Q1022 A3018 NOSIG
OIII 122230Z 00000KT 8000 SCT030 OVC080 10/07 Q1022 A3018

Airport on the map: